Whitetop, Virginia
Current Conditions -  °F | °C
As of 8:15 AM on Saturday 22 Nov 2014 (Local Time) from KGEV Reporting Station
Clear Clear  
Wind Chill: 28°   Ceiling: Unl
Heat Index: 28°   Visibility: 10mi
Dew Point:   Wind: 0mph
Humidity: 43%   Direction: NA
Pressure: 30.43"   Gusts: NA
Location:  36.6°N, 81.63°W
Report Text: KGEV 221315Z AUTO 00000KT 10SM CLR M02/M13 A3043 RMK AO2 T10231135
Loading
Personal Weather Stations






























Interactive Weather Map New forecast layout! Learn more

10-Day Weather Forecast

Advertisements
Track Severe Weather on mobile